Time;durP1;ratioP1;P1;durP2;ratioP2;P2;SDS_P1;SDS_P2;PMS_P1;PMS_P2;Temp;Humidity;BMP_temperature;BMP_pressure;BME280_temperature;BME280_humidity;BME280_pressure;Samples;Min_cycle;Max_cycle;Signal;HPM_P1;HPM_P2
2023/04/15 00:01:44;;;;;;;9.30;3.30;;;10.10;99.90;;;;;;5020890;28;39332;-78
2023/04/15 00:04:10;;;;;;;9.45;3.22;;;10.10;99.90;;;;;;5028531;28;39059;-77
2023/04/15 00:06:38;;;;;;;7.15;3.60;;;10.10;99.90;;;;;;5024767;28;36662;-78
2023/04/15 00:09:04;;;;;;;8.20;3.43;;;10.10;99.90;;;;;;5027911;28;37488;-77
2023/04/15 00:11:30;;;;;;;9.63;3.37;;;10.10;99.90;;;;;;5024043;28;39851;-77
2023/04/15 00:13:57;;;;;;;15.98;4.50;;;10.00;99.90;;;;;;5029264;28;38014;-78
2023/04/15 00:16:24;;;;;;;10.97;4.17;;;9.90;99.90;;;;;;5027763;28;37232;-78
2023/04/15 00:18:50;;;;;;;13.87;3.70;;;9.90;99.90;;;;;;5024969;28;36881;-78
2023/04/15 00:21:16;;;;;;;9.23;3.77;;;9.90;99.90;;;;;;5031307;28;38643;-78
2023/04/15 00:23:43;;;;;;;13.03;3.63;;;9.90;99.90;;;;;;5015582;28;37023;-78
2023/04/15 00:26:09;;;;;;;10.43;4.40;;;9.90;99.90;;;;;;5027665;28;37764;-79
2023/04/15 00:28:35;;;;;;;10.30;3.40;;;9.90;99.90;;;;;;5027448;28;36977;-78
2023/04/15 00:31:01;;;;;;;14.20;3.33;;;9.90;99.90;;;;;;5028080;28;39835;-78
2023/04/15 00:33:27;;;;;;;7.27;3.60;;;9.90;99.90;;;;;;5025310;28;47019;-77
2023/04/15 00:35:53;;;;;;;11.10;3.67;;;9.90;99.90;;;;;;5030223;28;38178;-78
2023/04/15 00:38:19;;;;;;;12.57;4.10;;;9.90;99.90;;;;;;5030138;28;37950;-78
2023/04/15 00:40:45;;;;;;;7.80;3.73;;;9.80;99.90;;;;;;5023319;28;38770;-78
2023/04/15 00:43:11;;;;;;;11.57;4.60;;;9.80;99.90;;;;;;5023194;28;39199;-77
2023/04/15 00:45:37;;;;;;;7.90;3.63;;;9.70;99.90;;;;;;5023523;28;39011;-77
2023/04/15 00:48:04;;;;;;;11.80;4.50;;;9.60;99.90;;;;;;5022579;28;36278;-77
2023/04/15 00:50:30;;;;;;;10.83;4.30;;;9.60;99.90;;;;;;5022812;28;37389;-77
2023/04/15 00:52:56;;;;;;;9.73;4.57;;;9.60;99.90;;;;;;5027602;28;37758;-78
2023/04/15 00:55:22;;;;;;;6.53;4.20;;;9.60;99.90;;;;;;5034064;28;37625;-77
2023/04/15 00:57:49;;;;;;;9.97;4.43;;;9.60;99.90;;;;;;5023685;28;37678;-77
2023/04/15 01:02:57;;;;;;;14.17;4.73;;;9.50;99.90;;;;;;5376850;23;20053;-74
2023/04/15 01:05:27;;;;;;;11.10;4.27;;;9.50;99.90;;;;;;5011096;28;36368;-74
2023/04/15 01:07:54;;;;;;;7.90;3.70;;;9.40;99.90;;;;;;5019748;28;37414;-75
2023/04/15 01:10:21;;;;;;;11.47;4.47;;;9.40;99.90;;;;;;5021239;28;39870;-75
2023/04/15 01:12:47;;;;;;;10.27;3.97;;;9.40;99.90;;;;;;5029397;28;37625;-74
2023/04/15 01:15:13;;;;;;;7.47;3.80;;;9.40;99.90;;;;;;5029271;28;37799;-74
2023/04/15 01:17:39;;;;;;;7.97;4.13;;;9.30;99.90;;;;;;5019528;28;36812;-75
2023/04/15 01:20:08;;;;;;;11.60;4.93;;;9.30;99.90;;;;;;5021162;28;39198;-74
2023/04/15 01:22:35;;;;;;;9.93;4.40;;;9.30;99.90;;;;;;5023080;28;38752;-74
2023/04/15 01:25:16;;;;;;;10.10;4.53;;;9.20;99.90;;;;;;5025098;28;38411;-74
2023/04/15 01:27:42;;;;;;;9.97;4.17;;;9.20;99.90;;;;;;5022617;28;47139;-75
2023/04/15 01:30:09;;;;;;;11.83;4.30;;;9.20;99.90;;;;;;5025789;28;37780;-74
2023/04/15 01:32:35;;;;;;;11.77;4.10;;;9.20;99.90;;;;;;5020936;28;38975;-75
2023/04/15 01:35:01;;;;;;;9.63;4.53;;;9.30;99.90;;;;;;5012077;28;37487;-75
2023/04/15 01:37:28;;;;;;;7.67;4.30;;;9.20;99.90;;;;;;5023251;28;38122;-76
2023/04/15 01:39:56;;;;;;;12.10;4.27;;;9.20;99.90;;;;;;5018095;28;38663;-75
2023/04/15 01:42:22;;;;;;;14.80;4.47;;;9.20;99.90;;;;;;5021585;28;38284;-75
2023/04/15 01:44:48;;;;;;;10.40;4.67;;;9.30;99.90;;;;;;5024168;28;38802;-75
2023/04/15 01:47:14;;;;;;;10.57;4.40;;;9.20;99.90;;;;;;5020779;28;37674;-75
2023/04/15 01:49:40;;;;;;;11.47;4.40;;;9.30;99.90;;;;;;5015940;28;38877;-75
2023/04/15 01:52:06;;;;;;;7.80;4.53;;;9.20;99.90;;;;;;5021451;28;39102;-74
2023/04/15 01:54:32;;;;;;;11.60;4.70;;;9.20;99.90;;;;;;5021814;28;37863;-75
2023/04/15 01:56:58;;;;;;;6.37;4.40;;;9.20;99.90;;;;;;5022529;28;36893;-75
2023/04/15 01:59:25;;;;;;;13.03;5.10;;;9.20;99.90;;;;;;5015071;28;38500;-75
2023/04/15 02:01:51;;;;;;;13.10;4.73;;;9.20;99.90;;;;;;5023890;28;38132;-75
2023/04/15 02:04:17;;;;;;;10.97;4.73;;;9.20;99.90;;;;;;5017836;28;37162;-76
2023/04/15 02:06:43;;;;;;;6.83;4.30;;;9.20;99.90;;;;;;5012112;28;37895;-74
2023/04/15 02:09:09;;;;;;;8.67;4.87;;;9.10;99.90;;;;;;5018201;28;39205;-74
2023/04/15 02:11:36;;;;;;;11.80;4.70;;;9.10;99.90;;;;;;5023070;28;38834;-74
2023/04/15 02:14:06;;;;;;;9.40;4.33;;;9.10;99.90;;;;;;5023029;28;38539;-75
2023/04/15 02:16:32;;;;;;;10.87;4.67;;;9.10;99.90;;;;;;5023476;28;37333;-75
2023/04/15 02:18:59;;;;;;;9.33;5.00;;;9.10;99.90;;;;;;5023565;28;38707;-74
2023/04/15 02:21:26;;;;;;;11.43;5.67;;;9.10;99.90;;;;;;5022310;28;37577;-75
2023/04/15 02:23:56;;;;;;;10.10;5.13;;;9.10;99.90;;;;;;5020858;28;38249;-74
2023/04/15 02:26:23;;;;;;;10.43;5.07;;;9.10;99.90;;;;;;5028579;28;35715;-75
2023/04/15 02:28:52;;;;;;;8.37;5.00;;;9.10;99.90;;;;;;5019645;28;39071;-74
2023/04/15 02:31:20;;;;;;;10.83;5.90;;;9.00;99.90;;;;;;5018526;28;39423;-73
2023/04/15 02:33:46;;;;;;;8.60;4.97;;;9.00;99.90;;;;;;5009389;28;36285;-74
2023/04/15 02:36:12;;;;;;;9.20;4.80;;;8.90;99.90;;;;;;5018164;28;37190;-73
2023/04/15 02:38:42;;;;;;;12.40;5.77;;;8.90;99.90;;;;;;5017802;28;38687;-75
2023/04/15 02:41:11;;;;;;;7.97;5.03;;;8.90;99.90;;;;;;5019413;28;39736;-74
2023/04/15 02:43:38;;;;;;;10.30;5.47;;;8.80;99.90;;;;;;5018843;28;37688;-74
2023/04/15 02:46:05;;;;;;;8.27;6.10;;;8.80;99.90;;;;;;5015464;28;36208;-75
2023/04/15 02:48:31;;;;;;;12.70;6.10;;;8.70;99.90;;;;;;5017102;28;37588;-75
2023/04/15 02:51:14;;;;;;;11.13;5.90;;;8.70;99.90;;;;;;5021197;28;37212;-73
2023/04/15 02:53:40;;;;;;;10.00;5.67;;;8.60;99.90;;;;;;5020496;28;49033;-74
2023/04/15 02:56:07;;;;;;;10.07;6.03;;;8.60;99.90;;;;;;5016959;28;36328;-74
2023/04/15 02:58:34;;;;;;;13.50;6.07;;;8.50;99.90;;;;;;5022774;28;39593;-74
2023/04/15 03:01:01;;;;;;;12.33;6.33;;;8.50;99.90;;;;;;5022489;28;36593;-75
2023/04/15 03:03:27;;;;;;;9.80;6.40;;;8.50;99.90;;;;;;5037671;28;36576;-74
2023/04/15 03:05:53;;;;;;;10.30;6.33;;;8.50;99.90;;;;;;5022554;28;36247;-74
2023/04/15 03:08:20;;;;;;;15.00;6.70;;;8.50;99.90;;;;;;5025502;28;40213;-74
2023/04/15 03:10:46;;;;;;;10.00;6.03;;;8.50;99.90;;;;;;5027243;28;37494;-74
2023/04/15 03:13:12;;;;;;;8.70;5.47;;;8.50;99.90;;;;;;5021952;28;38335;-74
2023/04/15 03:15:38;;;;;;;13.77;6.33;;;8.50;99.90;;;;;;5018730;28;37150;-75
2023/04/15 03:18:05;;;;;;;13.17;7.10;;;8.50;99.90;;;;;;5025435;28;38686;-74
2023/04/15 03:20:31;;;;;;;9.97;6.03;;;8.50;99.90;;;;;;5029012;28;37151;-75
2023/04/15 03:22:57;;;;;;;11.60;6.10;;;8.50;99.90;;;;;;5025916;28;37376;-75
2023/04/15 03:25:23;;;;;;;10.57;5.70;;;8.50;99.90;;;;;;5024588;28;37132;-75
2023/04/15 03:27:49;;;;;;;9.70;6.43;;;8.50;99.90;;;;;;5027032;28;37630;-76
2023/04/15 03:30:16;;;;;;;12.20;6.60;;;8.50;99.90;;;;;;5029557;28;38970;-76
2023/04/15 03:32:42;;;;;;;9.27;6.07;;;8.40;99.90;;;;;;5019552;28;38521;-75
2023/04/15 03:35:08;;;;;;;10.93;6.07;;;8.50;99.90;;;;;;5026635;28;38616;-75
2023/04/15 03:37:34;;;;;;;9.60;6.43;;;8.40;99.90;;;;;;5026095;28;39141;-75
2023/04/15 03:40:01;;;;;;;9.60;6.47;;;8.40;99.90;;;;;;5022682;28;38350;-75
2023/04/15 03:42:27;;;;;;;9.23;5.80;;;8.30;99.90;;;;;;5024115;28;37776;-74
2023/04/15 03:44:53;;;;;;;9.97;6.70;;;8.30;99.90;;;;;;5021440;28;37392;-75
2023/04/15 03:47:19;;;;;;;10.97;6.43;;;8.30;99.90;;;;;;5023767;28;38678;-74
2023/04/15 03:49:45;;;;;;;9.67;6.63;;;8.20;99.90;;;;;;5024724;28;38901;-74
2023/04/15 03:52:11;;;;;;;9.40;6.47;;;8.20;99.90;;;;;;5023935;28;35807;-75
2023/04/15 03:54:38;;;;;;;10.07;6.60;;;8.20;99.90;;;;;;5020681;28;36185;-75
2023/04/15 03:57:04;;;;;;;9.67;6.53;;;8.20;99.90;;;;;;5021029;28;39109;-73
2023/04/15 03:59:30;;;;;;;10.40;6.40;;;8.20;99.90;;;;;;5014659;28;37694;-74
2023/04/15 04:01:56;;;;;;;10.70;7.07;;;8.20;99.90;;;;;;5019652;28;37395;-73
2023/04/15 04:04:22;;;;;;;8.87;6.23;;;8.20;99.90;;;;;;5025903;28;36306;-73
2023/04/15 04:06:48;;;;;;;8.70;6.60;;;8.20;99.90;;;;;;5022408;28;37996;-74
2023/04/15 04:09:15;;;;;;;11.07;6.17;;;8.20;99.90;;;;;;5022670;28;38176;-75
2023/04/15 04:11:41;;;;;;;11.10;6.10;;;8.20;99.90;;;;;;5020362;28;38354;-74
2023/04/15 04:14:07;;;;;;;11.53;6.80;;;8.20;99.90;;;;;;5021908;28;36192;-75
2023/04/15 04:16:33;;;;;;;11.03;6.23;;;8.20;99.90;;;;;;5019724;28;37438;-75
2023/04/15 04:18:59;;;;;;;11.43;7.00;;;8.20;99.90;;;;;;5021765;28;37546;-75
2023/04/15 04:21:25;;;;;;;10.83;6.80;;;8.20;99.90;;;;;;5025562;28;38065;-74
2023/04/15 04:23:51;;;;;;;13.13;6.70;;;8.10;99.90;;;;;;5023549;28;37377;-75
2023/04/15 04:26:18;;;;;;;10.13;6.40;;;8.10;99.90;;;;;;5020285;28;39717;-74
2023/04/15 04:28:44;;;;;;;11.53;6.47;;;8.10;99.90;;;;;;5021908;28;39291;-74
2023/04/15 04:31:11;;;;;;;9.17;6.83;;;8.10;99.90;;;;;;5019209;28;38191;-74
2023/04/15 04:33:37;;;;;;;10.27;6.63;;;8.00;99.90;;;;;;5027152;28;36646;-74
2023/04/15 04:36:03;;;;;;;8.73;6.43;;;8.00;99.90;;;;;;5024272;28;38786;-74
2023/04/15 04:38:29;;;;;;;9.43;7.40;;;8.00;99.90;;;;;;5023055;28;37978;-74
2023/04/15 04:40:55;;;;;;;12.07;7.03;;;8.00;99.90;;;;;;5023288;28;37892;-75
2023/04/15 04:43:21;;;;;;;10.57;6.43;;;8.00;99.90;;;;;;5025757;28;36938;-75
2023/04/15 04:45:47;;;;;;;11.63;7.17;;;8.00;99.90;;;;;;5019615;28;39292;-74
2023/04/15 04:48:13;;;;;;;13.73;8.23;;;7.90;99.90;;;;;;5022045;28;39174;-74
2023/04/15 04:50:40;;;;;;;10.23;7.27;;;7.80;99.90;;;;;;5025576;28;38171;-75
2023/04/15 04:53:06;;;;;;;10.53;7.30;;;7.80;99.90;;;;;;5026600;28;36918;-74
2023/04/15 04:55:32;;;;;;;9.70;6.97;;;7.70;99.90;;;;;;5027973;28;38534;-75
2023/04/15 04:57:58;;;;;;;10.47;7.67;;;7.70;99.90;;;;;;5018302;28;38011;-74
2023/04/15 05:00:24;;;;;;;9.63;7.43;;;7.60;99.90;;;;;;5021882;28;37903;-75
2023/04/15 05:02:50;;;;;;;12.87;7.70;;;7.60;99.90;;;;;;5021193;28;37088;-75
2023/04/15 05:05:17;;;;;;;11.50;7.83;;;7.50;99.90;;;;;;5020922;28;39067;-75
2023/04/15 05:07:43;;;;;;;9.93;7.90;;;7.50;99.90;;;;;;5023660;28;38283;-75
2023/04/15 05:10:09;;;;;;;12.97;7.67;;;7.50;99.90;;;;;;5022958;28;37004;-75
2023/04/15 05:12:37;;;;;;;11.27;7.40;;;7.60;99.90;;;;;;5022388;28;36489;-74
2023/04/15 05:15:05;;;;;;;10.77;7.60;;;7.60;99.90;;;;;;5037085;28;37535;-74
2023/04/15 05:17:32;;;;;;;18.50;8.70;;;7.70;99.90;;;;;;5023134;28;47098;-74
2023/04/15 05:19:58;;;;;;;16.70;9.80;;;7.70;99.90;;;;;;5025522;28;38206;-74
2023/04/15 05:22:24;;;;;;;15.47;10.30;;;7.60;99.90;;;;;;5012459;28;37234;-75
2023/04/15 05:24:50;;;;;;;14.93;8.73;;;7.70;99.90;;;;;;5019806;28;39241;-74
2023/04/15 05:27:17;;;;;;;14.20;8.70;;;7.70;99.90;;;;;;5023486;28;37136;-73
2023/04/15 05:29:44;;;;;;;9.93;7.37;;;7.80;99.90;;;;;;5022482;28;37727;-74
2023/04/15 05:32:10;;;;;;;12.63;7.70;;;7.80;99.90;;;;;;5022394;28;35829;-74
2023/04/15 05:34:36;;;;;;;10.50;7.63;;;7.90;99.90;;;;;;5024731;28;39072;-74
2023/04/15 05:37:02;;;;;;;10.67;7.53;;;8.00;99.90;;;;;;5022110;28;39157;-75
2023/04/15 05:39:28;;;;;;;12.27;7.80;;;8.00;99.90;;;;;;5025237;28;38382;-73
2023/04/15 05:41:54;;;;;;;12.63;8.40;;;8.10;99.90;;;;;;5022887;28;37109;-74
2023/04/15 05:44:20;;;;;;;11.07;7.33;;;8.10;99.90;;;;;;5022276;28;37713;-73
2023/04/15 05:46:46;;;;;;;9.73;7.40;;;8.20;99.90;;;;;;5014241;28;37551;-76
2023/04/15 05:49:13;;;;;;;13.53;6.90;;;8.30;99.90;;;;;;5018149;28;38619;-74
2023/04/15 05:51:39;;;;;;;12.50;6.90;;;8.30;99.90;;;;;;5027000;28;38104;-74
2023/04/15 05:54:05;;;;;;;9.20;7.13;;;8.40;99.90;;;;;;5018365;28;38561;-75
2023/04/15 05:56:31;;;;;;;10.97;7.43;;;8.40;99.90;;;;;;5024952;28;37788;-75
2023/04/15 05:58:57;;;;;;;10.13;7.20;;;8.50;99.90;;;;;;5024939;28;38007;-75
2023/04/15 06:01:24;;;;;;;13.77;7.50;;;8.50;99.90;;;;;;5010846;28;37408;-75
2023/04/15 06:03:51;;;;;;;9.10;7.20;;;8.60;99.90;;;;;;5025119;28;39072;-75
2023/04/15 06:06:17;;;;;;;12.30;6.60;;;8.70;99.90;;;;;;5007213;28;39011;-74
2023/04/15 06:08:43;;;;;;;12.60;6.97;;;8.70;99.90;;;;;;5015299;28;37832;-75
2023/04/15 06:11:09;;;;;;;10.30;7.10;;;8.80;99.90;;;;;;5022510;28;37204;-75
2023/04/15 06:13:35;;;;;;;9.50;7.03;;;8.80;99.90;;;;;;5026846;28;38750;-75
2023/04/15 06:16:02;;;;;;;10.57;7.37;;;8.90;99.90;;;;;;5021150;28;38491;-74
2023/04/15 06:18:29;;;;;;;9.90;6.80;;;9.00;99.90;;;;;;5021848;28;36861;-74
2023/04/15 06:20:55;;;;;;;8.73;6.80;;;9.00;99.90;;;;;;5026536;28;38623;-74
2023/04/15 06:23:21;;;;;;;9.13;7.17;;;9.10;99.90;;;;;;5020190;28;37769;-75
2023/04/15 06:25:47;;;;;;;8.83;6.77;;;9.10;99.90;;;;;;5015106;28;38453;-74
2023/04/15 06:28:13;;;;;;;8.20;6.60;;;9.20;99.90;;;;;;5013537;28;37611;-73
2023/04/15 06:30:39;;;;;;;11.60;6.77;;;9.30;99.90;;;;;;5021638;28;37987;-75
2023/04/15 06:33:07;;;;;;;9.53;6.53;;;9.40;99.90;;;;;;5017948;28;20051;-74
2023/04/15 06:35:33;;;;;;;9.70;6.70;;;9.40;99.90;;;;;;5014516;28;37190;-74
2023/04/15 06:37:59;;;;;;;9.07;6.57;;;9.40;99.90;;;;;;5024363;28;37128;-75
2023/04/15 06:40:25;;;;;;;9.23;5.87;;;9.40;99.90;;;;;;5019239;28;37864;-75
2023/04/15 06:42:51;;;;;;;11.63;7.43;;;9.50;99.90;;;;;;5021141;28;39879;-73
2023/04/15 06:45:17;;;;;;;8.03;6.87;;;9.50;99.90;;;;;;5019414;28;38662;-76
2023/04/15 06:47:43;;;;;;;11.33;7.23;;;9.50;99.90;;;;;;5025088;28;38446;-77
2023/04/15 06:50:10;;;;;;;8.63;6.77;;;9.50;99.90;;;;;;5014511;28;35829;-75
2023/04/15 06:52:36;;;;;;;14.73;7.67;;;9.50;99.90;;;;;;5019159;28;37670;-74
2023/04/15 06:55:03;;;;;;;12.13;7.50;;;9.50;99.90;;;;;;5016529;28;38043;-76
2023/04/15 06:57:29;;;;;;;11.60;8.20;;;9.40;99.90;;;;;;5015246;28;36760;-73
2023/04/15 06:59:55;;;;;;;12.00;7.97;;;9.40;99.90;;;;;;5022073;28;37270;-75
2023/04/15 07:02:21;;;;;;;10.63;7.70;;;9.40;99.90;;;;;;5019759;28;38141;-75
2023/04/15 07:04:47;;;;;;;12.63;7.53;;;9.40;99.90;;;;;;5019583;28;37764;-74
2023/04/15 07:07:14;;;;;;;11.17;7.90;;;9.40;99.90;;;;;;5022673;28;37889;-74
2023/04/15 07:09:40;;;;;;;11.03;7.83;;;9.50;99.90;;;;;;5019198;28;36996;-75
2023/04/15 07:12:06;;;;;;;14.23;8.53;;;9.50;99.90;;;;;;5011806;28;39689;-74
2023/04/15 07:14:32;;;;;;;12.83;7.60;;;9.60;99.90;;;;;;5025405;28;38386;-75
2023/04/15 07:16:58;;;;;;;11.13;7.72;;;9.60;99.90;;;;;;5025871;28;38574;-74
2023/04/15 07:19:25;;;;;;;11.80;7.47;;;9.70;99.90;;;;;;5022583;28;36966;-74
2023/04/15 07:21:51;;;;;;;9.60;6.68;;;9.80;99.90;;;;;;5025341;28;38591;-73
2023/04/15 07:24:18;;;;;;;11.33;7.87;;;9.90;99.90;;;;;;5010709;28;38444;-74
2023/04/15 07:26:45;;;;;;;10.75;7.00;;;9.90;99.90;;;;;;5018985;28;36544;-74
2023/04/15 07:29:11;;;;;;;12.13;7.32;;;10.00;99.90;;;;;;5010654;28;36383;-75
2023/04/15 07:31:37;;;;;;;9.98;7.22;;;10.10;99.90;;;;;;5014222;28;39084;-74
2023/04/15 07:34:04;;;;;;;9.48;6.50;;;10.20;99.90;;;;;;5022361;28;37930;-75
2023/04/15 07:36:30;;;;;;;10.80;6.60;;;10.30;99.90;;;;;;5022184;28;37810;-75
2023/04/15 07:38:56;;;;;;;11.23;6.43;;;10.40;99.90;;;;;;5029178;28;37872;-76
2023/04/15 07:41:22;;;;;;;9.32;6.57;;;10.60;99.90;;;;;;5028682;28;40617;-75
2023/04/15 07:43:49;;;;;;;8.88;6.47;;;10.70;99.90;;;;;;5025378;28;37973;-76
2023/04/15 07:46:15;;;;;;;9.27;6.03;;;10.70;99.90;;;;;;5021495;28;37693;-76
2023/04/15 07:48:41;;;;;;;8.80;6.68;;;10.90;99.90;;;;;;5025333;28;38336;-76
2023/04/15 07:51:07;;;;;;;12.10;6.80;;;11.00;99.90;;;;;;5021707;28;38754;-75
2023/04/15 07:53:33;;;;;;;11.38;6.50;;;11.20;99.90;;;;;;5015589;28;37950;-76
2023/04/15 07:56:00;;;;;;;8.43;6.45;;;11.30;99.90;;;;;;5023828;28;38052;-76
2023/04/15 07:58:26;;;;;;;8.82;6.20;;;11.40;99.90;;;;;;5014246;28;37438;-75
2023/04/15 08:00:53;;;;;;;9.30;6.15;;;11.60;99.90;;;;;;5018108;28;38980;-75
2023/04/15 08:03:22;;;;;;;8.95;6.38;;;11.60;99.90;;;;;;5023485;28;39328;-76
2023/04/15 08:05:48;;;;;;;9.88;6.90;;;11.70;99.90;;;;;;5028082;28;37434;-76
2023/04/15 08:08:14;;;;;;;8.70;6.70;;;11.70;99.90;;;;;;5028703;28;37336;-76
2023/04/15 08:10:40;;;;;;;7.32;6.10;;;11.80;99.90;;;;;;5023955;28;38729;-75
2023/04/15 08:13:06;;;;;;;9.70;6.10;;;12.00;99.90;;;;;;5023516;28;39401;-78
2023/04/15 08:15:33;;;;;;;7.85;6.70;;;12.10;99.90;;;;;;5027741;28;37680;-75
2023/04/15 08:18:01;;;;;;;10.13;6.35;;;12.20;99.90;;;;;;5021111;28;38222;-77
2023/04/15 08:20:27;;;;;;;12.00;5.85;;;12.30;99.90;;;;;;5017375;28;47589;-76
2023/04/15 08:22:54;;;;;;;10.95;6.50;;;12.30;99.90;;;;;;5028828;28;38100;-77
2023/04/15 08:25:20;;;;;;;10.27;6.47;;;12.40;99.90;;;;;;5028536;28;37972;-76
2023/04/15 08:27:47;;;;;;;9.27;5.78;;;12.40;99.90;;;;;;5026543;28;37195;-76
2023/04/15 08:30:13;;;;;;;7.70;6.35;;;12.50;99.90;;;;;;5021766;28;39304;-76
2023/04/15 08:32:46;;;;;;;8.32;6.68;;;12.60;99.90;;;;;;5023559;28;38738;-75
2023/04/15 08:35:13;;;;;;;8.77;6.63;;;12.70;99.90;;;;;;5029608;28;36918;-77
2023/04/15 08:37:39;;;;;;;10.30;6.68;;;12.80;99.90;;;;;;5033941;28;36036;-76
2023/04/15 08:40:05;;;;;;;9.55;7.07;;;12.70;99.90;;;;;;5026508;28;37626;-75
2023/04/15 08:42:40;;;;;;;6.90;6.15;;;12.80;99.90;;;;;;5034394;28;37007;-75
2023/04/15 08:45:09;;;;;;;6.97;6.18;;;13.00;99.90;;;;;;5031589;28;38377;-75
2023/04/15 08:47:38;;;;;;;10.38;6.68;;;13.30;99.90;;;;;;5026219;28;35859;-73
2023/04/15 08:50:07;;;;;;;8.93;6.38;;;13.50;99.90;;;;;;5025746;28;38842;-74
2023/04/15 08:52:34;;;;;;;8.98;6.88;;;13.30;99.90;;;;;;5027525;28;47849;-77
2023/04/15 08:55:02;;;;;;;10.57;7.25;;;13.20;99.90;;;;;;5036502;28;36621;-76
2023/04/15 08:57:28;;;;;;;8.55;6.22;;;13.20;99.90;;;;;;5024987;28;38235;-75
2023/04/15 08:59:57;;;;;;;9.65;6.88;;;13.20;99.90;;;;;;5029672;28;39059;-76
2023/04/15 09:02:25;;;;;;;8.75;6.82;;;13.40;99.90;;;;;;5020161;28;38271;-77
2023/04/15 09:04:52;;;;;;;7.80;6.50;;;13.70;99.90;;;;;;5023935;28;38332;-76
2023/04/15 09:07:18;;;;;;;10.95;7.40;;;13.80;99.90;;;;;;5029850;28;36031;-77
2023/04/15 09:09:45;;;;;;;8.55;6.95;;;13.80;99.90;;;;;;5034005;28;39107;-77
2023/04/15 09:12:11;;;;;;;9.77;7.70;;;13.80;99.90;;;;;;5032361;28;39813;-76
2023/04/15 09:14:39;;;;;;;9.52;7.07;;;13.70;99.90;;;;;;5032622;28;37808;-76
2023/04/15 09:17:10;;;;;;;9.82;7.38;;;14.00;99.90;;;;;;5028302;28;35968;-75
2023/04/15 09:19:36;;;;;;;8.82;6.85;;;14.10;99.90;;;;;;5026520;28;37731;-78
2023/04/15 09:22:03;;;;;;;10.30;8.32;;;14.30;99.90;;;;;;5026741;28;37766;-78
2023/04/15 09:24:38;;;;;;;11.77;8.20;;;14.10;99.90;;;;;;5034330;28;36679;-76
2023/04/15 09:27:05;;;;;;;13.48;6.95;;;14.10;99.90;;;;;;5025640;28;37917;-76
2023/04/15 09:29:31;;;;;;;12.73;6.70;;;14.20;99.90;;;;;;5023865;28;38951;-76
2023/04/15 09:32:12;;;;;;;9.52;6.88;;;14.20;99.90;;;;;;5020862;28;38938;-76
2023/04/15 09:34:38;;;;;;;8.00;5.78;;;14.20;99.90;;;;;;5021965;28;47301;-77
2023/04/15 09:37:04;;;;;;;8.88;5.88;;;14.20;99.90;;;;;;5025792;28;35756;-76
2023/04/15 09:39:48;;;;;;;9.88;5.88;;;14.30;99.90;;;;;;5028322;28;37810;-77
2023/04/15 09:42:16;;;;;;;7.70;6.00;;;14.60;99.90;;;;;;5028513;28;37961;-76
2023/04/15 09:44:43;;;;;;;9.40;6.65;;;14.70;99.90;;;;;;5029446;28;38243;-77
2023/04/15 09:47:25;;;;;;;8.10;5.45;;;14.80;99.90;;;;;;5020525;28;37235;-75
2023/04/15 09:49:56;;;;;;;12.80;4.72;;;14.90;99.90;;;;;;5024315;28;38346;-76
2023/04/15 09:52:22;;;;;;;6.55;4.53;;;14.90;99.90;;;;;;5018625;28;38350;-78
2023/04/15 09:54:53;;;;;;;9.00;5.65;;;14.90;99.90;;;;;;5027467;28;37012;-76
2023/04/15 09:57:20;;;;;;;7.72;5.35;;;14.70;99.90;;;;;;5024548;28;36492;-77
2023/04/15 09:59:47;;;;;;;5.35;4.30;;;14.60;99.90;;;;;;5021435;28;39022;-76
2023/04/15 10:02:13;;;;;;;9.18;4.82;;;14.70;99.90;;;;;;5026806;28;38649;-76
2023/04/15 10:04:40;;;;;;;7.53;4.88;;;14.90;99.90;;;;;;5024057;28;37432;-78
2023/04/15 10:07:08;;;;;;;8.90;4.28;;;15.10;99.90;;;;;;5026099;28;38167;-76
2023/04/15 10:09:38;;;;;;;5.90;3.97;;;15.30;99.90;;;;;;5015853;28;38701;-77
2023/04/15 10:12:04;;;;;;;5.53;3.40;;;15.60;99.90;;;;;;5020104;28;38385;-77
2023/04/15 10:14:34;;;;;;;5.30;3.03;;;15.90;99.90;;;;;;5035619;28;37374;-77
2023/04/15 10:17:02;;;;;;;8.10;2.47;;;15.60;99.90;;;;;;5021300;28;36673;-76
2023/04/15 10:19:32;;;;;;;3.65;2.22;;;15.30;99.90;;;;;;5019560;28;47046;-77
2023/04/15 10:21:58;;;;;;;6.00;1.92;;;15.40;99.90;;;;;;5016804;28;38095;-76
2023/04/15 10:24:25;;;;;;;3.55;1.75;;;15.30;99.90;;;;;;5019058;28;37518;-77
2023/04/15 10:26:51;;;;;;;4.10;1.90;;;15.40;99.90;;;;;;5023325;28;36931;-77
2023/04/15 10:29:18;;;;;;;4.57;1.90;;;15.50;99.90;;;;;;5018695;28;38427;-77
2023/04/15 10:31:45;;;;;;;5.05;1.83;;;15.30;99.90;;;;;;5028752;28;39365;-77
2023/04/15 10:34:12;;;;;;;7.65;2.28;;;15.50;99.90;;;;;;5024102;28;38313;-76
2023/04/15 10:36:38;;;;;;;4.55;2.00;;;15.60;99.90;;;;;;5025665;28;37368;-78
2023/04/15 10:39:33;;;;;;;4.38;1.95;;;15.40;99.90;;;;;;5020833;28;38476;-77
2023/04/15 10:42:06;;;;;;;3.78;1.63;;;15.20;99.90;;;;;;5011074;28;38087;-78
2023/04/15 10:44:32;;;;;;;5.03;1.40;;;15.20;99.90;;;;;;5018918;28;48311;-77
2023/04/15 10:46:58;;;;;;;4.82;1.70;;;15.20;99.90;;;;;;5020767;28;36963;-75
2023/04/15 10:49:25;;;;;;;4.88;1.13;;;15.50;99.90;;;;;;5015124;28;37758;-78
2023/04/15 10:51:56;;;;;;;2.50;1.00;;;15.70;99.90;;;;;;5018807;28;36910;-76
2023/04/15 10:54:24;;;;;;;9.48;1.52;;;15.80;99.90;;;;;;5014235;28;38303;-75
2023/04/15 10:57:00;;;;;;;2.22;1.25;;;15.80;99.90;;;;;;5018541;28;35880;-76
2023/04/15 10:59:34;;;;;;;5.63;1.30;;;16.00;99.90;;;;;;5020886;28;38172;-77
2023/04/15 11:02:03;;;;;;;2.58;1.30;;;16.00;99.90;;;;;;5022138;28;37219;-77
2023/04/15 11:04:57;;;;;;;4.20;1.60;;;16.20;99.90;;;;;;5016797;28;48770;-77
2023/04/15 11:07:48;;;;;;;5.55;2.47;;;16.30;99.90;;;;;;5013501;28;36097;-76
2023/04/15 11:10:17;;;;;;;3.53;2.45;;;15.90;99.90;;;;;;5022161;28;38896;-75
2023/04/15 11:12:44;;;;;;;5.70;2.53;;;16.10;99.90;;;;;;5027571;28;38236;-77
2023/04/15 11:15:34;;;;;;;3.17;2.50;;;16.10;99.90;;;;;;5028315;28;38138;-77
2023/04/15 11:18:12;;;;;;;4.05;2.33;;;16.20;99.90;;;;;;5026444;28;36402;-78
2023/04/15 11:20:40;;;;;;;3.83;2.20;;;16.20;99.90;;;;;;5001612;28;47595;-77
2023/04/15 11:23:08;;;;;;;8.15;2.60;;;16.60;99.90;;;;;;5020485;28;38828;-77
2023/04/15 11:25:38;;;;;;;5.63;2.22;;;16.90;99.90;;;;;;5020155;28;37503;-75
2023/04/15 11:28:04;;;;;;;3.90;1.77;;;17.00;99.90;;;;;;5016902;28;37208;-73
2023/04/15 11:30:33;;;;;;;7.18;2.08;;;17.00;99.90;;;;;;5022400;28;39581;-76
2023/04/15 11:33:02;;;;;;;2.75;2.28;;;17.20;99.90;;;;;;5022242;28;37442;-74
2023/04/15 11:35:29;;;;;;;7.88;2.55;;;16.90;99.90;;;;;;5018568;28;48718;-75
2023/04/15 11:37:55;;;;;;;4.28;2.50;;;16.60;99.90;;;;;;5020381;28;36895;-74
2023/04/15 11:40:23;;;;;;;11.85;2.85;;;16.60;99.90;;;;;;5022313;28;38479;-76
2023/04/15 11:43:05;;;;;;;5.90;2.53;;;16.40;99.90;;;;;;5023574;28;38874;-74
2023/04/15 11:45:32;;;;;;;4.72;2.80;;;16.80;99.90;;;;;;5026258;28;48217;-75
2023/04/15 11:48:10;;;;;;;6.05;2.72;;;17.10;99.90;;;;;;5024711;28;36126;-74
2023/04/15 11:50:39;;;;;;;8.18;3.28;;;17.20;99.90;;;;;;5022027;28;48027;-74
2023/04/15 11:53:08;;;;;;;4.38;2.35;;;17.20;99.90;;;;;;5019601;28;37843;-74
2023/04/15 11:55:48;;;;;;;4.63;2.67;;;17.30;99.90;;;;;;5018352;28;38764;-77
2023/04/15 11:58:25;;;;;;;4.38;2.60;;;17.40;99.90;;;;;;5022876;28;35847;-77
2023/04/15 12:00:56;;;;;;;2.92;2.17;;;17.60;99.90;;;;;;5014783;28;39042;-75
2023/04/15 12:03:28;;;;;;;4.27;1.90;;;18.10;99.90;;;;;;5022622;28;38780;-75
2023/04/15 12:06:22;;;;;;;3.95;2.13;;;18.30;99.90;;;;;;5017000;28;36728;-76
2023/04/15 12:08:54;;;;;;;5.40;2.35;;;17.90;99.90;;;;;;5008729;28;48667;-77
2023/04/15 12:11:30;;;;;;;3.40;1.70;;;17.80;99.90;;;;;;5024483;28;39060;-75
2023/04/15 12:14:11;;;;;;;5.53;2.15;;;17.70;99.90;;;;;;5022671;28;37739;-79
2023/04/15 12:16:48;;;;;;;7.05;2.45;;;17.50;99.90;;;;;;5016122;28;48325;-74
2023/04/15 12:19:18;;;;;;;4.60;2.00;;;17.70;99.90;;;;;;5017202;28;37310;-74
2023/04/15 12:21:46;;;;;;;7.03;1.90;;;17.50;99.90;;;;;;5014262;28;37713;-76
2023/04/15 12:24:13;;;;;;;3.20;1.98;;;17.60;99.90;;;;;;5022121;28;37140;-75
2023/04/15 12:26:47;;;;;;;4.38;1.67;;;17.80;99.90;;;;;;5018468;28;37532;-74
2023/04/15 12:29:15;;;;;;;6.32;1.88;;;17.80;99.90;;;;;;5026338;28;36865;-76
2023/04/15 12:31:52;;;;;;;4.82;2.17;;;18.10;99.90;;;;;;5021968;28;37547;-76
2023/04/15 12:34:59;;;;;;;4.15;1.95;;;17.70;99.90;;;;;;5024033;28;39124;-76
2023/04/15 12:37:25;;;;;;;5.90;2.55;;;17.20;99.90;;;;;;5019863;28;37699;-74
2023/04/15 12:39:52;;;;;;;5.60;3.10;;;17.40;99.90;;;;;;5024694;28;36237;-76
2023/04/15 12:42:19;;;;;;;7.63;2.53;;;17.70;99.90;;;;;;5018993;28;39283;-77
2023/04/15 12:44:45;;;;;;;5.13;2.40;;;17.10;99.90;;;;;;5012314;28;37213;-75
2023/04/15 12:47:12;;;;;;;5.32;2.65;;;16.90;99.90;;;;;;5013065;28;38733;-74
2023/04/15 12:49:38;;;;;;;5.80;2.30;;;16.80;99.90;;;;;;5026651;28;37223;-76
2023/04/15 12:52:05;;;;;;;10.75;2.95;;;17.10;99.90;;;;;;5020338;28;37693;-74
2023/04/15 12:54:31;;;;;;;5.57;2.40;;;17.20;99.90;;;;;;5015071;28;38074;-74